sensor_id;sensor_type;location;lat;lon;timestamp;P1;durP1;ratioP1;P2;durP2;ratioP2
21480;SDS011;10902;48.158;8.634;2023-07-09T00:00:43;12.15;;;5.95;;
21480;SDS011;10902;48.158;8.634;2023-07-09T00:03:29;8.82;;;5.68;;
21480;SDS011;10902;48.158;8.634;2023-07-09T00:06:15;9.90;;;5.57;;
21480;SDS011;10902;48.158;8.634;2023-07-09T00:09:01;12.48;;;6.47;;
21480;SDS011;10902;48.158;8.634;2023-07-09T00:11:46;10.50;;;6.50;;
21480;SDS011;10902;48.158;8.634;2023-07-09T00:14:33;11.40;;;6.38;;
21480;SDS011;10902;48.158;8.634;2023-07-09T00:17:36;10.85;;;5.75;;
21480;SDS011;10902;48.158;8.634;2023-07-09T00:20:23;9.48;;;6.30;;
21480;SDS011;10902;48.158;8.634;2023-07-09T00:23:12;9.88;;;6.32;;
21480;SDS011;10902;48.158;8.634;2023-07-09T00:25:58;10.70;;;6.20;;
21480;SDS011;10902;48.158;8.634;2023-07-09T00:28:44;12.02;;;6.32;;
21480;SDS011;10902;48.158;8.634;2023-07-09T00:31:30;9.10;;;6.03;;
21480;SDS011;10902;48.158;8.634;2023-07-09T00:34:15;12.18;;;6.05;;
21480;SDS011;10902;48.158;8.634;2023-07-09T00:37:10;10.05;;;5.90;;
21480;SDS011;10902;48.158;8.634;2023-07-09T00:39:57;9.02;;;6.20;;
21480;SDS011;10902;48.158;8.634;2023-07-09T00:42:46;9.38;;;6.38;;
21480;SDS011;10902;48.158;8.634;2023-07-09T00:45:33;10.05;;;6.80;;
21480;SDS011;10902;48.158;8.634;2023-07-09T00:48:19;10.27;;;6.53;;
21480;SDS011;10902;48.158;8.634;2023-07-09T00:51:07;10.25;;;6.15;;
21480;SDS011;10902;48.158;8.634;2023-07-09T00:53:59;9.57;;;6.03;;
21480;SDS011;10902;48.158;8.634;2023-07-09T00:56:52;9.45;;;6.93;;
21480;SDS011;10902;48.158;8.634;2023-07-09T00:59:38;11.05;;;6.78;;
21480;SDS011;10902;48.158;8.634;2023-07-09T01:02:26;10.95;;;6.80;;
21480;SDS011;10902;48.158;8.634;2023-07-09T01:05:12;10.40;;;7.13;;
21480;SDS011;10902;48.158;8.634;2023-07-09T01:08:02;9.82;;;6.30;;
21480;SDS011;10902;48.158;8.634;2023-07-09T01:10:48;10.48;;;6.80;;
21480;SDS011;10902;48.158;8.634;2023-07-09T01:13:34;11.40;;;6.85;;
21480;SDS011;10902;48.158;8.634;2023-07-09T01:16:20;9.63;;;6.57;;
21480;SDS011;10902;48.158;8.634;2023-07-09T01:19:08;10.15;;;6.80;;
21480;SDS011;10902;48.158;8.634;2023-07-09T01:21:55;9.63;;;6.57;;
21480;SDS011;10902;48.158;8.634;2023-07-09T01:27:41;9.88;;;7.22;;
21480;SDS011;10902;48.158;8.634;2023-07-09T01:30:31;11.43;;;6.90;;
21480;SDS011;10902;48.158;8.634;2023-07-09T01:33:20;9.80;;;6.75;;
21480;SDS011;10902;48.158;8.634;2023-07-09T01:36:08;9.60;;;7.18;;
21480;SDS011;10902;48.158;8.634;2023-07-09T01:38:55;9.80;;;6.10;;
21480;SDS011;10902;48.158;8.634;2023-07-09T01:41:41;10.07;;;7.10;;
21480;SDS011;10902;48.158;8.634;2023-07-09T01:44:27;11.43;;;7.15;;
21480;SDS011;10902;48.158;8.634;2023-07-09T01:47:14;10.77;;;7.20;;
21480;SDS011;10902;48.158;8.634;2023-07-09T01:50:00;10.75;;;7.38;;
21480;SDS011;10902;48.158;8.634;2023-07-09T01:52:46;12.15;;;7.18;;
21480;SDS011;10902;48.158;8.634;2023-07-09T01:55:34;12.13;;;7.70;;
21480;SDS011;10902;48.158;8.634;2023-07-09T01:58:20;9.80;;;6.70;;
21480;SDS011;10902;48.158;8.634;2023-07-09T02:01:09;12.20;;;7.93;;
21480;SDS011;10902;48.158;8.634;2023-07-09T02:03:55;10.98;;;7.85;;
21480;SDS011;10902;48.158;8.634;2023-07-09T02:06:41;11.73;;;7.20;;
21480;SDS011;10902;48.158;8.634;2023-07-09T02:09:26;10.80;;;6.47;;
21480;SDS011;10902;48.158;8.634;2023-07-09T02:12:12;9.77;;;6.70;;
21480;SDS011;10902;48.158;8.634;2023-07-09T02:14:59;11.57;;;7.85;;
21480;SDS011;10902;48.158;8.634;2023-07-09T02:17:44;11.70;;;7.20;;
21480;SDS011;10902;48.158;8.634;2023-07-09T02:20:30;9.80;;;6.88;;
21480;SDS011;10902;48.158;8.634;2023-07-09T02:23:16;11.52;;;7.40;;
21480;SDS011;10902;48.158;8.634;2023-07-09T02:26:01;10.15;;;6.72;;
21480;SDS011;10902;48.158;8.634;2023-07-09T02:28:47;13.07;;;7.50;;
21480;SDS011;10902;48.158;8.634;2023-07-09T02:31:33;12.82;;;6.90;;
21480;SDS011;10902;48.158;8.634;2023-07-09T02:34:18;10.10;;;6.85;;
21480;SDS011;10902;48.158;8.634;2023-07-09T02:37:04;11.18;;;6.93;;
21480;SDS011;10902;48.158;8.634;2023-07-09T02:39:50;10.98;;;6.93;;
21480;SDS011;10902;48.158;8.634;2023-07-09T02:42:36;10.75;;;6.82;;
21480;SDS011;10902;48.158;8.634;2023-07-09T02:45:22;12.32;;;7.97;;
21480;SDS011;10902;48.158;8.634;2023-07-09T02:48:07;10.82;;;7.57;;
21480;SDS011;10902;48.158;8.634;2023-07-09T02:50:53;12.68;;;7.68;;
21480;SDS011;10902;48.158;8.634;2023-07-09T02:53:38;10.70;;;7.88;;
21480;SDS011;10902;48.158;8.634;2023-07-09T02:56:24;11.40;;;7.90;;
21480;SDS011;10902;48.158;8.634;2023-07-09T02:59:10;10.05;;;7.28;;
21480;SDS011;10902;48.158;8.634;2023-07-09T03:01:56;11.70;;;7.78;;
21480;SDS011;10902;48.158;8.634;2023-07-09T03:04:42;11.57;;;6.80;;
21480;SDS011;10902;48.158;8.634;2023-07-09T03:07:28;10.85;;;8.15;;
21480;SDS011;10902;48.158;8.634;2023-07-09T03:10:13;10.80;;;7.68;;
21480;SDS011;10902;48.158;8.634;2023-07-09T03:12:59;11.93;;;7.95;;
21480;SDS011;10902;48.158;8.634;2023-07-09T03:15:53;9.82;;;7.28;;
21480;SDS011;10902;48.158;8.634;2023-07-09T03:18:40;12.23;;;7.50;;
21480;SDS011;10902;48.158;8.634;2023-07-09T03:21:26;11.60;;;7.72;;
21480;SDS011;10902;48.158;8.634;2023-07-09T03:24:12;12.85;;;7.95;;
21480;SDS011;10902;48.158;8.634;2023-07-09T03:27:13;11.30;;;8.20;;
21480;SDS011;10902;48.158;8.634;2023-07-09T03:29:58;11.13;;;7.57;;
21480;SDS011;10902;48.158;8.634;2023-07-09T03:32:46;11.65;;;7.57;;
21480;SDS011;10902;48.158;8.634;2023-07-09T03:35:32;12.35;;;7.85;;
21480;SDS011;10902;48.158;8.634;2023-07-09T03:38:19;12.05;;;7.90;;
21480;SDS011;10902;48.158;8.634;2023-07-09T03:41:06;10.77;;;7.55;;
21480;SDS011;10902;48.158;8.634;2023-07-09T03:43:51;11.88;;;8.35;;
21480;SDS011;10902;48.158;8.634;2023-07-09T03:46:38;10.73;;;7.93;;
21480;SDS011;10902;48.158;8.634;2023-07-09T03:49:23;10.48;;;7.53;;
21480;SDS011;10902;48.158;8.634;2023-07-09T03:52:09;11.60;;;7.72;;
21480;SDS011;10902;48.158;8.634;2023-07-09T03:54:55;12.18;;;7.45;;
21480;SDS011;10902;48.158;8.634;2023-07-09T03:57:41;13.20;;;7.15;;
21480;SDS011;10902;48.158;8.634;2023-07-09T04:00:27;12.10;;;8.70;;
21480;SDS011;10902;48.158;8.634;2023-07-09T04:03:12;11.25;;;7.75;;
21480;SDS011;10902;48.158;8.634;2023-07-09T04:05:58;13.95;;;8.65;;
21480;SDS011;10902;48.158;8.634;2023-07-09T04:08:44;13.13;;;8.65;;
21480;SDS011;10902;48.158;8.634;2023-07-09T04:11:29;11.13;;;8.32;;
21480;SDS011;10902;48.158;8.634;2023-07-09T04:14:15;9.85;;;7.75;;
21480;SDS011;10902;48.158;8.634;2023-07-09T04:17:01;12.18;;;8.75;;
21480;SDS011;10902;48.158;8.634;2023-07-09T04:19:47;11.85;;;7.93;;
21480;SDS011;10902;48.158;8.634;2023-07-09T04:22:33;12.20;;;8.63;;
21480;SDS011;10902;48.158;8.634;2023-07-09T04:25:19;12.68;;;8.40;;
21480;SDS011;10902;48.158;8.634;2023-07-09T04:28:05;11.75;;;8.20;;
21480;SDS011;10902;48.158;8.634;2023-07-09T04:30:51;10.90;;;7.90;;
21480;SDS011;10902;48.158;8.634;2023-07-09T04:33:37;12.40;;;8.50;;
21480;SDS011;10902;48.158;8.634;2023-07-09T04:36:22;13.35;;;9.00;;
21480;SDS011;10902;48.158;8.634;2023-07-09T04:39:08;11.90;;;8.13;;
21480;SDS011;10902;48.158;8.634;2023-07-09T04:41:54;10.00;;;7.80;;
21480;SDS011;10902;48.158;8.634;2023-07-09T04:44:40;11.95;;;7.65;;
21480;SDS011;10902;48.158;8.634;2023-07-09T04:47:26;10.82;;;7.40;;
21480;SDS011;10902;48.158;8.634;2023-07-09T04:50:11;12.00;;;7.97;;
21480;SDS011;10902;48.158;8.634;2023-07-09T04:52:58;11.90;;;7.80;;
21480;SDS011;10902;48.158;8.634;2023-07-09T04:55:44;10.13;;;7.35;;
21480;SDS011;10902;48.158;8.634;2023-07-09T04:58:30;9.85;;;7.55;;
21480;SDS011;10902;48.158;8.634;2023-07-09T05:01:16;10.32;;;7.25;;
21480;SDS011;10902;48.158;8.634;2023-07-09T05:04:01;11.10;;;7.78;;
21480;SDS011;10902;48.158;8.634;2023-07-09T05:06:47;10.43;;;7.43;;
21480;SDS011;10902;48.158;8.634;2023-07-09T05:09:33;11.23;;;7.30;;
21480;SDS011;10902;48.158;8.634;2023-07-09T05:12:18;12.77;;;7.75;;
21480;SDS011;10902;48.158;8.634;2023-07-09T05:15:05;10.63;;;7.15;;
21480;SDS011;10902;48.158;8.634;2023-07-09T05:17:51;9.55;;;7.28;;
21480;SDS011;10902;48.158;8.634;2023-07-09T05:20:37;10.43;;;7.07;;
21480;SDS011;10902;48.158;8.634;2023-07-09T05:23:24;12.15;;;7.38;;
21480;SDS011;10902;48.158;8.634;2023-07-09T05:26:10;9.68;;;6.68;;
21480;SDS011;10902;48.158;8.634;2023-07-09T05:28:56;9.52;;;7.10;;
21480;SDS011;10902;48.158;8.634;2023-07-09T05:31:42;9.43;;;6.85;;
21480;SDS011;10902;48.158;8.634;2023-07-09T05:34:28;10.75;;;6.95;;
21480;SDS011;10902;48.158;8.634;2023-07-09T05:37:14;11.30;;;7.40;;
21480;SDS011;10902;48.158;8.634;2023-07-09T05:39:59;10.18;;;6.93;;
21480;SDS011;10902;48.158;8.634;2023-07-09T05:42:45;9.77;;;6.38;;
21480;SDS011;10902;48.158;8.634;2023-07-09T05:45:31;10.40;;;6.30;;
21480;SDS011;10902;48.158;8.634;2023-07-09T05:48:16;10.02;;;6.50;;
21480;SDS011;10902;48.158;8.634;2023-07-09T05:51:02;10.98;;;6.82;;
21480;SDS011;10902;48.158;8.634;2023-07-09T05:53:48;9.90;;;6.88;;
21480;SDS011;10902;48.158;8.634;2023-07-09T05:56:34;7.75;;;5.82;;
21480;SDS011;10902;48.158;8.634;2023-07-09T05:59:19;9.68;;;6.50;;
21480;SDS011;10902;48.158;8.634;2023-07-09T06:02:07;9.93;;;6.38;;
21480;SDS011;10902;48.158;8.634;2023-07-09T06:04:58;8.10;;;5.70;;
21480;SDS011;10902;48.158;8.634;2023-07-09T06:07:43;8.60;;;5.85;;
21480;SDS011;10902;48.158;8.634;2023-07-09T06:10:29;10.00;;;6.32;;
21480;SDS011;10902;48.158;8.634;2023-07-09T06:13:15;8.68;;;6.20;;
21480;SDS011;10902;48.158;8.634;2023-07-09T06:16:01;7.95;;;5.47;;
21480;SDS011;10902;48.158;8.634;2023-07-09T06:18:46;11.18;;;6.30;;
21480;SDS011;10902;48.158;8.634;2023-07-09T06:21:32;9.40;;;6.53;;
21480;SDS011;10902;48.158;8.634;2023-07-09T06:24:18;12.32;;;6.95;;
21480;SDS011;10902;48.158;8.634;2023-07-09T06:27:03;13.32;;;5.53;;
21480;SDS011;10902;48.158;8.634;2023-07-09T06:29:49;9.43;;;5.57;;
21480;SDS011;10902;48.158;8.634;2023-07-09T06:32:35;7.93;;;5.25;;
21480;SDS011;10902;48.158;8.634;2023-07-09T06:35:21;8.35;;;5.85;;
21480;SDS011;10902;48.158;8.634;2023-07-09T06:38:07;8.15;;;5.35;;
21480;SDS011;10902;48.158;8.634;2023-07-09T06:40:57;10.20;;;5.65;;
21480;SDS011;10902;48.158;8.634;2023-07-09T06:43:43;8.00;;;4.85;;
21480;SDS011;10902;48.158;8.634;2023-07-09T06:46:28;8.38;;;5.53;;
21480;SDS011;10902;48.158;8.634;2023-07-09T06:49:14;9.07;;;5.40;;
21480;SDS011;10902;48.158;8.634;2023-07-09T06:52:00;7.70;;;5.13;;
21480;SDS011;10902;48.158;8.634;2023-07-09T06:54:46;8.07;;;5.40;;
21480;SDS011;10902;48.158;8.634;2023-07-09T06:57:31;10.68;;;5.43;;
21480;SDS011;10902;48.158;8.634;2023-07-09T07:00:17;7.85;;;5.07;;
21480;SDS011;10902;48.158;8.634;2023-07-09T07:03:03;7.95;;;4.60;;
21480;SDS011;10902;48.158;8.634;2023-07-09T07:05:51;6.72;;;4.45;;
21480;SDS011;10902;48.158;8.634;2023-07-09T07:08:42;7.60;;;4.88;;
21480;SDS011;10902;48.158;8.634;2023-07-09T07:11:27;8.00;;;4.90;;
21480;SDS011;10902;48.158;8.634;2023-07-09T07:14:15;8.80;;;4.85;;
21480;SDS011;10902;48.158;8.634;2023-07-09T07:17:00;8.30;;;5.60;;
21480;SDS011;10902;48.158;8.634;2023-07-09T07:19:46;7.80;;;4.93;;
21480;SDS011;10902;48.158;8.634;2023-07-09T07:22:32;8.88;;;4.80;;
21480;SDS011;10902;48.158;8.634;2023-07-09T07:25:17;9.05;;;4.85;;
21480;SDS011;10902;48.158;8.634;2023-07-09T07:28:03;8.95;;;4.95;;
21480;SDS011;10902;48.158;8.634;2023-07-09T07:30:59;6.85;;;4.38;;
21480;SDS011;10902;48.158;8.634;2023-07-09T07:33:53;6.85;;;4.53;;
21480;SDS011;10902;48.158;8.634;2023-07-09T07:36:39;7.28;;;4.55;;
21480;SDS011;10902;48.158;8.634;2023-07-09T07:39:24;7.60;;;4.47;;
21480;SDS011;10902;48.158;8.634;2023-07-09T07:42:10;9.02;;;4.55;;
21480;SDS011;10902;48.158;8.634;2023-07-09T07:44:56;8.52;;;5.20;;
21480;SDS011;10902;48.158;8.634;2023-07-09T07:47:41;7.85;;;4.53;;
21480;SDS011;10902;48.158;8.634;2023-07-09T07:50:27;7.95;;;4.75;;
21480;SDS011;10902;48.158;8.634;2023-07-09T07:53:13;10.23;;;4.88;;
21480;SDS011;10902;48.158;8.634;2023-07-09T07:56:00;6.53;;;4.40;;
21480;SDS011;10902;48.158;8.634;2023-07-09T07:58:47;8.20;;;3.90;;
21480;SDS011;10902;48.158;8.634;2023-07-09T08:01:33;6.60;;;4.07;;
21480;SDS011;10902;48.158;8.634;2023-07-09T08:04:20;7.78;;;4.53;;
21480;SDS011;10902;48.158;8.634;2023-07-09T08:07:09;7.28;;;3.85;;
21480;SDS011;10902;48.158;8.634;2023-07-09T08:09:55;7.18;;;4.10;;
21480;SDS011;10902;48.158;8.634;2023-07-09T08:12:41;6.75;;;3.95;;
21480;SDS011;10902;48.158;8.634;2023-07-09T08:15:27;7.65;;;3.95;;
21480;SDS011;10902;48.158;8.634;2023-07-09T08:18:13;6.57;;;3.95;;
21480;SDS011;10902;48.158;8.634;2023-07-09T08:20:59;8.70;;;4.05;;
21480;SDS011;10902;48.158;8.634;2023-07-09T08:23:45;6.20;;;3.70;;
21480;SDS011;10902;48.158;8.634;2023-07-09T08:26:31;6.57;;;3.92;;
21480;SDS011;10902;48.158;8.634;2023-07-09T08:29:17;9.18;;;4.20;;
21480;SDS011;10902;48.158;8.634;2023-07-09T08:32:03;8.50;;;4.53;;
21480;SDS011;10902;48.158;8.634;2023-07-09T08:34:49;6.50;;;3.83;;
21480;SDS011;10902;48.158;8.634;2023-07-09T08:37:35;6.75;;;4.07;;
21480;SDS011;10902;48.158;8.634;2023-07-09T08:40:20;8.27;;;3.83;;
21480;SDS011;10902;48.158;8.634;2023-07-09T08:43:10;5.45;;;3.30;;
21480;SDS011;10902;48.158;8.634;2023-07-09T08:49:12;6.95;;;4.32;;
21480;SDS011;10902;48.158;8.634;2023-07-09T08:52:03;6.13;;;3.70;;
21480;SDS011;10902;48.158;8.634;2023-07-09T08:54:57;5.78;;;3.78;;
21480;SDS011;10902;48.158;8.634;2023-07-09T08:57:50;8.77;;;4.22;;
21480;SDS011;10902;48.158;8.634;2023-07-09T09:03:41;6.43;;;3.92;;
21480;SDS011;10902;48.158;8.634;2023-07-09T09:06:32;6.70;;;3.80;;
21480;SDS011;10902;48.158;8.634;2023-07-09T09:12:16;6.70;;;3.60;;
21480;SDS011;10902;48.158;8.634;2023-07-09T09:15:16;8.30;;;3.67;;
21480;SDS011;10902;48.158;8.634;2023-07-09T09:18:37;5.63;;;3.35;;
21480;SDS011;10902;48.158;8.634;2023-07-09T09:21:23;6.82;;;3.00;;
21480;SDS011;10902;48.158;8.634;2023-07-09T09:24:14;5.90;;;3.50;;
21480;SDS011;10902;48.158;8.634;2023-07-09T09:27:07;7.18;;;3.30;;
21480;SDS011;10902;48.158;8.634;2023-07-09T09:29:53;6.80;;;2.85;;
21480;SDS011;10902;48.158;8.634;2023-07-09T09:32:42;6.65;;;2.83;;
21480;SDS011;10902;48.158;8.634;2023-07-09T09:35:31;6.57;;;2.90;;
21480;SDS011;10902;48.158;8.634;2023-07-09T09:38:20;6.80;;;2.97;;
21480;SDS011;10902;48.158;8.634;2023-07-09T09:41:12;8.35;;;2.85;;
21480;SDS011;10902;48.158;8.634;2023-07-09T09:44:02;5.97;;;3.15;;
21480;SDS011;10902;48.158;8.634;2023-07-09T09:46:48;4.53;;;2.53;;
21480;SDS011;10902;48.158;8.634;2023-07-09T09:49:41;5.60;;;2.80;;
21480;SDS011;10902;48.158;8.634;2023-07-09T09:52:29;7.50;;;2.95;;
21480;SDS011;10902;48.158;8.634;2023-07-09T09:55:18;4.50;;;2.67;;
21480;SDS011;10902;48.158;8.634;2023-07-09T09:58:12;4.85;;;2.65;;
21480;SDS011;10902;48.158;8.634;2023-07-09T10:01:00;5.32;;;2.90;;
21480;SDS011;10902;48.158;8.634;2023-07-09T10:03:50;5.70;;;3.15;;
21480;SDS011;10902;48.158;8.634;2023-07-09T10:06:45;5.57;;;2.60;;
21480;SDS011;10902;48.158;8.634;2023-07-09T10:09:47;6.70;;;3.78;;
21480;SDS011;10902;48.158;8.634;2023-07-09T10:12:50;6.38;;;3.95;;
21480;SDS011;10902;48.158;8.634;2023-07-09T10:15:42;5.05;;;3.00;;
21480;SDS011;10902;48.158;8.634;2023-07-09T10:27:43;6.72;;;3.30;;
21480;SDS011;10902;48.158;8.634;2023-07-09T10:30:41;4.95;;;2.60;;
21480;SDS011;10902;48.158;8.634;2023-07-09T10:39:55;7.90;;;3.47;;
21480;SDS011;10902;48.158;8.634;2023-07-09T10:42:44;5.60;;;3.15;;
21480;SDS011;10902;48.158;8.634;2023-07-09T10:45:33;6.00;;;3.20;;
21480;SDS011;10902;48.158;8.634;2023-07-09T10:48:37;5.50;;;3.20;;
21480;SDS011;10902;48.158;8.634;2023-07-09T10:51:28;6.22;;;2.90;;
21480;SDS011;10902;48.158;8.634;2023-07-09T11:00:18;6.13;;;3.00;;
21480;SDS011;10902;48.158;8.634;2023-07-09T11:03:30;7.88;;;3.53;;
21480;SDS011;10902;48.158;8.634;2023-07-09T11:06:18;6.85;;;2.83;;
21480;SDS011;10902;48.158;8.634;2023-07-09T11:09:11;7.82;;;3.30;;
21480;SDS011;10902;48.158;8.634;2023-07-09T11:12:11;7.18;;;3.00;;
21480;SDS011;10902;48.158;8.634;2023-07-09T11:17:57;5.30;;;2.72;;
21480;SDS011;10902;48.158;8.634;2023-07-09T11:20:45;6.07;;;3.03;;
21480;SDS011;10902;48.158;8.634;2023-07-09T11:26:34;7.30;;;3.45;;
21480;SDS011;10902;48.158;8.634;2023-07-09T11:29:22;6.53;;;3.17;;
21480;SDS011;10902;48.158;8.634;2023-07-09T11:32:09;5.72;;;2.92;;
21480;SDS011;10902;48.158;8.634;2023-07-09T11:35:05;5.45;;;2.60;;
21480;SDS011;10902;48.158;8.634;2023-07-09T11:37:52;8.70;;;3.40;;
21480;SDS011;10902;48.158;8.634;2023-07-09T11:40:45;6.38;;;3.28;;
21480;SDS011;10902;48.158;8.634;2023-07-09T11:43:35;7.57;;;2.90;;
21480;SDS011;10902;48.158;8.634;2023-07-09T11:56:23;4.50;;;2.60;;
21480;SDS011;10902;48.158;8.634;2023-07-09T11:59:10;7.15;;;3.28;;
21480;SDS011;10902;48.158;8.634;2023-07-09T12:01:56;6.40;;;2.80;;
21480;SDS011;10902;48.158;8.634;2023-07-09T12:04:49;7.70;;;3.17;;
21480;SDS011;10902;48.158;8.634;2023-07-09T12:07:36;6.60;;;3.33;;
21480;SDS011;10902;48.158;8.634;2023-07-09T12:10:23;6.53;;;2.90;;
21480;SDS011;10902;48.158;8.634;2023-07-09T12:13:10;7.00;;;3.05;;
21480;SDS011;10902;48.158;8.634;2023-07-09T12:15:56;6.50;;;3.30;;
21480;SDS011;10902;48.158;8.634;2023-07-09T12:18:43;5.63;;;2.90;;
21480;SDS011;10902;48.158;8.634;2023-07-09T12:21:29;5.53;;;3.00;;
21480;SDS011;10902;48.158;8.634;2023-07-09T12:27:30;6.75;;;3.08;;
21480;SDS011;10902;48.158;8.634;2023-07-09T12:30:22;6.32;;;3.15;;
21480;SDS011;10902;48.158;8.634;2023-07-09T12:33:07;6.40;;;3.15;;
21480;SDS011;10902;48.158;8.634;2023-07-09T12:36:00;7.43;;;2.90;;
21480;SDS011;10902;48.158;8.634;2023-07-09T12:38:49;7.28;;;2.92;;
21480;SDS011;10902;48.158;8.634;2023-07-09T12:41:38;7.22;;;3.00;;
21480;SDS011;10902;48.158;8.634;2023-07-09T12:44:25;6.95;;;3.50;;
21480;SDS011;10902;48.158;8.634;2023-07-09T12:47:13;6.50;;;3.22;;
21480;SDS011;10902;48.158;8.634;2023-07-09T12:50:00;6.43;;;3.08;;
21480;SDS011;10902;48.158;8.634;2023-07-09T12:52:48;4.90;;;2.85;;
21480;SDS011;10902;48.158;8.634;2023-07-09T12:55:38;7.72;;;3.17;;
21480;SDS011;10902;48.158;8.634;2023-07-09T12:58:33;5.70;;;2.97;;
21480;SDS011;10902;48.158;8.634;2023-07-09T13:01:22;6.07;;;3.03;;
21480;SDS011;10902;48.158;8.634;2023-07-09T13:04:11;6.80;;;2.72;;
21480;SDS011;10902;48.158;8.634;2023-07-09T13:06:57;4.93;;;2.58;;
21480;SDS011;10902;48.158;8.634;2023-07-09T13:09:48;5.95;;;2.92;;
21480;SDS011;10902;48.158;8.634;2023-07-09T13:12:38;5.68;;;2.72;;
21480;SDS011;10902;48.158;8.634;2023-07-09T13:15:27;7.43;;;2.90;;
21480;SDS011;10902;48.158;8.634;2023-07-09T13:18:24;5.90;;;3.03;;
21480;SDS011;10902;48.158;8.634;2023-07-09T13:21:16;5.28;;;2.53;;
21480;SDS011;10902;48.158;8.634;2023-07-09T13:24:07;6.07;;;2.78;;
21480;SDS011;10902;48.158;8.634;2023-07-09T13:27:09;6.10;;;2.60;;
21480;SDS011;10902;48.158;8.634;2023-07-09T13:29:58;6.13;;;2.88;;
21480;SDS011;10902;48.158;8.634;2023-07-09T13:32:45;6.35;;;2.60;;
21480;SDS011;10902;48.158;8.634;2023-07-09T13:35:33;5.95;;;2.50;;
21480;SDS011;10902;48.158;8.634;2023-07-09T13:38:19;6.38;;;3.00;;
21480;SDS011;10902;48.158;8.634;2023-07-09T13:41:10;5.88;;;2.92;;
21480;SDS011;10902;48.158;8.634;2023-07-09T13:44:01;7.43;;;3.38;;
21480;SDS011;10902;48.158;8.634;2023-07-09T13:46:58;4.90;;;2.75;;
21480;SDS011;10902;48.158;8.634;2023-07-09T13:49:44;5.15;;;2.90;;
21480;SDS011;10902;48.158;8.634;2023-07-09T13:52:31;5.75;;;2.83;;
21480;SDS011;10902;48.158;8.634;2023-07-09T13:55:20;6.68;;;3.35;;
21480;SDS011;10902;48.158;8.634;2023-07-09T13:58:09;5.85;;;3.28;;
21480;SDS011;10902;48.158;8.634;2023-07-09T14:00:59;6.25;;;3.17;;
21480;SDS011;10902;48.158;8.634;2023-07-09T14:03:52;5.82;;;3.38;;
21480;SDS011;10902;48.158;8.634;2023-07-09T14:06:43;6.88;;;3.20;;
21480;SDS011;10902;48.158;8.634;2023-07-09T14:09:31;7.63;;;2.92;;
21480;SDS011;10902;48.158;8.634;2023-07-09T14:12:16;6.70;;;3.20;;
21480;SDS011;10902;48.158;8.634;2023-07-09T14:15:05;8.15;;;3.10;;
21480;SDS011;10902;48.158;8.634;2023-07-09T14:18:00;6.88;;;3.70;;
21480;SDS011;10902;48.158;8.634;2023-07-09T14:20:46;5.18;;;2.60;;
21480;SDS011;10902;48.158;8.634;2023-07-09T14:23:32;7.30;;;3.03;;
21480;SDS011;10902;48.158;8.634;2023-07-09T14:26:17;6.78;;;2.90;;
21480;SDS011;10902;48.158;8.634;2023-07-09T14:29:03;6.85;;;3.05;;
21480;SDS011;10902;48.158;8.634;2023-07-09T14:31:50;6.50;;;3.10;;
21480;SDS011;10902;48.158;8.634;2023-07-09T14:34:36;7.68;;;3.40;;
21480;SDS011;10902;48.158;8.634;2023-07-09T14:37:39;7.60;;;3.00;;
21480;SDS011;10902;48.158;8.634;2023-07-09T14:40:25;7.45;;;3.03;;
21480;SDS011;10902;48.158;8.634;2023-07-09T14:43:11;6.97;;;3.00;;
21480;SDS011;10902;48.158;8.634;2023-07-09T14:45:56;5.65;;;2.80;;
21480;SDS011;10902;48.158;8.634;2023-07-09T14:48:43;5.57;;;2.60;;
21480;SDS011;10902;48.158;8.634;2023-07-09T14:51:29;7.10;;;2.97;;
21480;SDS011;10902;48.158;8.634;2023-07-09T14:54:18;6.95;;;2.63;;
21480;SDS011;10902;48.158;8.634;2023-07-09T14:57:27;7.45;;;2.90;;
21480;SDS011;10902;48.158;8.634;2023-07-09T15:00:17;5.38;;;2.90;;
21480;SDS011;10902;48.158;8.634;2023-07-09T15:03:04;7.50;;;2.90;;
21480;SDS011;10902;48.158;8.634;2023-07-09T15:05:50;6.13;;;2.92;;
21480;SDS011;10902;48.158;8.634;2023-07-09T15:08:36;6.28;;;2.70;;
21480;SDS011;10902;48.158;8.634;2023-07-09T15:11:22;5.88;;;2.60;;
21480;SDS011;10902;48.158;8.634;2023-07-09T15:14:09;5.82;;;2.72;;
21480;SDS011;10902;48.158;8.634;2023-07-09T15:16:56;4.90;;;2.63;;
21480;SDS011;10902;48.158;8.634;2023-07-09T15:19:41;6.30;;;3.10;;
21480;SDS011;10902;48.158;8.634;2023-07-09T15:22:31;5.85;;;2.70;;
21480;SDS011;10902;48.158;8.634;2023-07-09T15:25:26;7.28;;;2.90;;
21480;SDS011;10902;48.158;8.634;2023-07-09T15:28:13;6.20;;;3.53;;
21480;SDS011;10902;48.158;8.634;2023-07-09T15:30:59;6.72;;;2.83;;
21480;SDS011;10902;48.158;8.634;2023-07-09T15:33:44;5.53;;;2.70;;
21480;SDS011;10902;48.158;8.634;2023-07-09T15:36:30;7.72;;;3.10;;
21480;SDS011;10902;48.158;8.634;2023-07-09T15:39:16;5.00;;;2.88;;
21480;SDS011;10902;48.158;8.634;2023-07-09T15:42:04;6.07;;;2.78;;
21480;SDS011;10902;48.158;8.634;2023-07-09T15:44:57;7.13;;;3.28;;
21480;SDS011;10902;48.158;8.634;2023-07-09T15:47:44;7.82;;;2.90;;
21480;SDS011;10902;48.158;8.634;2023-07-09T15:50:31;6.13;;;3.10;;
21480;SDS011;10902;48.158;8.634;2023-07-09T15:53:19;8.05;;;3.22;;
21480;SDS011;10902;48.158;8.634;2023-07-09T15:56:11;6.43;;;2.90;;
21480;SDS011;10902;48.158;8.634;2023-07-09T15:59:21;6.05;;;2.90;;
21480;SDS011;10902;48.158;8.634;2023-07-09T16:02:16;6.53;;;3.10;;
21480;SDS011;10902;48.158;8.634;2023-07-09T16:05:01;6.00;;;2.70;;
21480;SDS011;10902;48.158;8.634;2023-07-09T16:07:53;5.93;;;3.22;;
21480;SDS011;10902;48.158;8.634;2023-07-09T16:10:40;6.43;;;3.30;;
21480;SDS011;10902;48.158;8.634;2023-07-09T16:13:26;5.97;;;3.10;;
21480;SDS011;10902;48.158;8.634;2023-07-09T16:16:13;5.97;;;2.90;;
21480;SDS011;10902;48.158;8.634;2023-07-09T16:19:00;10.40;;;3.08;;
21480;SDS011;10902;48.158;8.634;2023-07-09T16:21:45;5.95;;;2.90;;
21480;SDS011;10902;48.158;8.634;2023-07-09T16:24:33;8.85;;;4.00;;
21480;SDS011;10902;48.158;8.634;2023-07-09T16:27:21;7.85;;;3.40;;
21480;SDS011;10902;48.158;8.634;2023-07-09T16:30:18;7.07;;;3.20;;
21480;SDS011;10902;48.158;8.634;2023-07-09T16:33:13;6.97;;;3.00;;
21480;SDS011;10902;48.158;8.634;2023-07-09T16:35:59;7.13;;;3.40;;
21480;SDS011;10902;48.158;8.634;2023-07-09T16:38:48;7.18;;;3.05;;
21480;SDS011;10902;48.158;8.634;2023-07-09T16:41:34;6.93;;;3.72;;
21480;SDS011;10902;48.158;8.634;2023-07-09T16:44:20;6.72;;;3.10;;
21480;SDS011;10902;48.158;8.634;2023-07-09T16:47:16;7.80;;;3.40;;
21480;SDS011;10902;48.158;8.634;2023-07-09T16:50:04;7.53;;;3.45;;
21480;SDS011;10902;48.158;8.634;2023-07-09T16:52:50;6.40;;;3.30;;
21480;SDS011;10902;48.158;8.634;2023-07-09T16:55:37;10.15;;;3.58;;
21480;SDS011;10902;48.158;8.634;2023-07-09T16:58:25;7.07;;;3.15;;
21480;SDS011;10902;48.158;8.634;2023-07-09T17:01:15;7.40;;;3.30;;
21480;SDS011;10902;48.158;8.634;2023-07-09T17:04:04;8.45;;;3.53;;
21480;SDS011;10902;48.158;8.634;2023-07-09T17:07:01;8.13;;;3.33;;
21480;SDS011;10902;48.158;8.634;2023-07-09T17:09:48;5.63;;;3.38;;
21480;SDS011;10902;48.158;8.634;2023-07-09T17:12:33;9.45;;;3.50;;
21480;SDS011;10902;48.158;8.634;2023-07-09T17:15:21;6.68;;;3.17;;
21480;SDS011;10902;48.158;8.634;2023-07-09T17:18:26;6.50;;;2.95;;
21480;SDS011;10902;48.158;8.634;2023-07-09T17:21:15;5.70;;;2.90;;
21480;SDS011;10902;48.158;8.634;2023-07-09T17:24:01;6.68;;;3.10;;
21480;SDS011;10902;48.158;8.634;2023-07-09T17:26:47;7.82;;;3.10;;
21480;SDS011;10902;48.158;8.634;2023-07-09T17:29:34;7.15;;;2.90;;
21480;SDS011;10902;48.158;8.634;2023-07-09T17:32:19;9.18;;;3.08;;
21480;SDS011;10902;48.158;8.634;2023-07-09T17:35:05;5.30;;;2.60;;
21480;SDS011;10902;48.158;8.634;2023-07-09T17:37:51;6.57;;;3.03;;
21480;SDS011;10902;48.158;8.634;2023-07-09T17:40:40;5.78;;;2.80;;